createdAt,value
2023-10-03T00:00:35.402Z,18.05
2023-10-03T00:01:35.334Z,18.04
2023-10-03T00:02:35.361Z,18.03
2023-10-03T00:03:35.391Z,18.01
2023-10-03T00:04:35.373Z,18.03
2023-10-03T00:05:35.295Z,18.00
2023-10-03T00:06:35.233Z,18.00
2023-10-03T00:07:35.219Z,17.98
2023-10-03T00:08:35.254Z,17.97
2023-10-03T00:09:35.207Z,17.95
2023-10-03T00:10:35.249Z,17.94
2023-10-03T00:11:35.185Z,17.95
2023-10-03T00:12:35.161Z,17.97
2023-10-03T00:13:35.170Z,18.00
2023-10-03T00:14:42.769Z,18.00
2023-10-03T00:15:35.115Z,18.01
2023-10-03T00:16:35.150Z,18.03
2023-10-03T00:17:35.123Z,18.03
2023-10-03T00:18:35.168Z,18.04
2023-10-03T00:19:35.120Z,18.04
2023-10-03T00:20:35.085Z,18.04
2023-10-03T00:21:35.055Z,18.03
2023-10-03T00:22:35.043Z,18.03
2023-10-03T00:23:35.097Z,18.05
2023-10-03T00:24:35.058Z,18.05
2023-10-03T00:25:41.545Z,18.05
2023-10-03T00:26:35.050Z,18.08
2023-10-03T00:27:34.993Z,18.10
2023-10-03T00:28:35.070Z,18.10
2023-10-03T00:29:35.000Z,18.10
2023-10-03T00:30:35.006Z,18.10
2023-10-03T00:31:34.964Z,18.07
2023-10-03T00:32:35.021Z,18.07
2023-10-03T00:33:35.033Z,18.07
2023-10-03T00:34:34.940Z,18.08
2023-10-03T00:35:34.973Z,18.10
2023-10-03T00:36:34.900Z,18.13
2023-10-03T00:37:34.915Z,18.15
2023-10-03T00:38:34.961Z,18.15
2023-10-03T00:39:34.897Z,18.11
2023-10-03T00:40:34.882Z,18.13
2023-10-03T00:41:34.850Z,18.10
2023-10-03T00:42:34.853Z,18.10
2023-10-03T00:43:34.863Z,18.13
2023-10-03T00:44:34.909Z,18.16
2023-10-03T00:45:34.841Z,18.15
2023-10-03T00:46:34.884Z,18.18
2023-10-03T00:47:34.869Z,18.16
2023-10-03T00:48:34.811Z,18.19
2023-10-03T00:49:34.769Z,18.18
2023-10-03T00:50:34.823Z,18.18
2023-10-03T00:51:34.801Z,18.16
2023-10-03T00:52:34.773Z,18.19
2023-10-03T00:53:34.769Z,18.22
2023-10-03T00:54:34.762Z,18.20
2023-10-03T00:55:34.700Z,18.20
2023-10-03T00:56:34.745Z,18.20
2023-10-03T00:57:34.739Z,18.20
2023-10-03T00:58:34.671Z,18.25
2023-10-03T00:59:34.783Z,18.28
2023-10-03T01:00:34.689Z,18.28
2023-10-03T01:01:34.685Z,18.29
2023-10-03T01:02:34.756Z,18.28
2023-10-03T01:03:34.953Z,18.29
2023-10-03T01:04:34.677Z,18.31
2023-10-03T01:05:34.640Z,18.35
2023-10-03T01:06:34.604Z,18.37
2023-10-03T01:07:34.607Z,18.38
2023-10-03T01:08:34.618Z,18.37
2023-10-03T01:09:34.585Z,18.35
2023-10-03T01:10:34.561Z,18.37
2023-10-03T01:11:34.613Z,18.38
2023-10-03T01:12:34.526Z,18.41
2023-10-03T01:13:34.536Z,18.43
2023-10-03T01:14:34.548Z,18.45
2023-10-03T01:15:34.536Z,18.45
2023-10-03T01:16:34.821Z,18.44
2023-10-03T01:17:34.562Z,18.44
2023-10-03T01:18:34.511Z,18.47
2023-10-03T01:19:34.475Z,18.47
2023-10-03T01:20:34.514Z,18.49
2023-10-03T01:21:34.439Z,18.49
2023-10-03T01:22:34.414Z,18.49
2023-10-03T01:23:34.426Z,18.50
2023-10-03T01:24:34.455Z,18.50
2023-10-03T01:25:34.402Z,18.50
2023-10-03T01:26:34.420Z,18.52
2023-10-03T01:27:34.369Z,18.53
2023-10-03T01:28:34.387Z,18.52
2023-10-03T01:29:34.406Z,18.53
2023-10-03T01:30:34.370Z,18.56
2023-10-03T01:31:34.355Z,18.56
2023-10-03T01:32:34.441Z,18.56
2023-10-03T01:33:34.358Z,18.58
2023-10-03T01:34:34.319Z,18.58
2023-10-03T01:35:34.325Z,18.60
2023-10-03T01:36:40.764Z,18.63
2023-10-03T01:37:34.265Z,18.63
2023-10-03T01:38:34.287Z,18.63
2023-10-03T01:39:34.244Z,18.60
2023-10-03T01:40:34.276Z,18.58
2023-10-03T01:41:34.325Z,18.55
2023-10-03T01:42:34.241Z,18.52
2023-10-03T01:43:34.225Z,18.49
2023-10-03T01:44:34.230Z,18.47
2023-10-03T01:45:34.251Z,18.47
2023-10-03T01:46:34.272Z,18.47
2023-10-03T01:47:34.228Z,18.50
2023-10-03T01:48:34.231Z,18.52
2023-10-03T01:49:34.150Z,18.52
2023-10-03T01:50:34.167Z,18.49
2023-10-03T01:51:34.115Z,18.44
2023-10-03T01:52:34.135Z,18.41
2023-10-03T01:53:34.171Z,18.43
2023-10-03T01:54:34.101Z,18.41
2023-10-03T01:55:34.093Z,18.40
2023-10-03T01:56:34.089Z,18.37
2023-10-03T01:57:34.098Z,18.38
2023-10-03T01:58:34.073Z,18.40
2023-10-03T01:59:34.098Z,18.40
2023-10-03T02:00:34.022Z,18.41
2023-10-03T02:01:34.082Z,18.43
2023-10-03T02:02:34.089Z,18.44
2023-10-03T02:03:34.629Z,18.45
2023-10-03T02:04:34.047Z,18.45
2023-10-03T02:05:33.994Z,18.47
2023-10-03T02:06:33.982Z,18.47
2023-10-03T02:07:33.952Z,18.44
2023-10-03T02:08:33.968Z,18.44
2023-10-03T02:09:33.940Z,18.43
2023-10-03T02:10:33.916Z,18.43
2023-10-03T02:11:34.008Z,18.43
2023-10-03T02:12:33.907Z,18.44
2023-10-03T02:13:33.905Z,18.40
2023-10-03T02:14:33.959Z,18.38
2023-10-03T02:15:33.922Z,18.37
2023-10-03T02:16:33.942Z,18.34
2023-10-03T02:17:33.927Z,18.33
2023-10-03T02:18:33.848Z,18.35
2023-10-03T02:19:33.818Z,18.37
2023-10-03T02:20:33.907Z,18.37
2023-10-03T02:21:33.802Z,18.35
2023-10-03T02:22:33.806Z,18.33
2023-10-03T02:23:34.094Z,18.29
2023-10-03T02:24:33.797Z,18.28
2023-10-03T02:25:33.818Z,18.28
2023-10-03T02:26:33.887Z,18.28
2023-10-03T02:27:33.789Z,18.25
2023-10-03T02:28:35.356Z,18.25
2023-10-03T02:29:33.758Z,18.26
2023-10-03T02:30:33.752Z,18.25
2023-10-03T02:31:33.738Z,18.26
2023-10-03T02:32:33.729Z,18.26
2023-10-03T02:33:33.706Z,18.25
2023-10-03T02:34:33.706Z,18.26
2023-10-03T02:35:33.704Z,18.28
2023-10-03T02:36:33.653Z,18.28
2023-10-03T02:37:33.660Z,18.29
2023-10-03T02:38:33.652Z,18.31
2023-10-03T02:39:33.635Z,18.31
2023-10-03T02:40:33.659Z,18.29
2023-10-03T02:41:33.638Z,18.31
2023-10-03T02:42:33.606Z,18.29
2023-10-03T02:43:33.592Z,18.28
2023-10-03T02:44:33.649Z,18.28
2023-10-03T02:45:33.584Z,18.29
2023-10-03T02:46:33.544Z,18.31
2023-10-03T02:47:33.544Z,18.35
2023-10-03T02:48:33.571Z,18.38
2023-10-03T02:49:33.513Z,18.40
2023-10-03T02:50:33.530Z,18.41
2023-10-03T02:51:33.493Z,18.44
2023-10-03T02:52:33.477Z,18.47
2023-10-03T02:53:33.559Z,18.49
2023-10-03T02:54:33.512Z,18.47
2023-10-03T02:55:33.463Z,18.49
2023-10-03T02:56:33.487Z,18.49
2023-10-03T02:57:33.441Z,18.53
2023-10-03T02:58:33.447Z,18.58
2023-10-03T02:59:33.460Z,18.60
2023-10-03T03:00:33.441Z,18.62
2023-10-03T03:01:33.436Z,18.62
2023-10-03T03:02:33.478Z,18.63
2023-10-03T03:03:34.056Z,18.63
2023-10-03T03:04:33.434Z,18.65
2023-10-03T03:05:40.892Z,18.66
2023-10-03T03:06:39.861Z,18.68
2023-10-03T03:07:33.369Z,18.71
2023-10-03T03:08:33.354Z,18.71
2023-10-03T03:09:33.300Z,18.73
2023-10-03T03:10:39.792Z,18.74
2023-10-03T03:11:33.304Z,18.75
2023-10-03T03:12:33.309Z,18.78
2023-10-03T03:13:33.540Z,18.78
2023-10-03T03:14:33.283Z,18.77
2023-10-03T03:15:33.245Z,18.80
2023-10-03T03:16:33.296Z,18.80
2023-10-03T03:17:33.344Z,18.81
2023-10-03T03:18:39.781Z,18.80
2023-10-03T03:19:33.255Z,18.78
2023-10-03T03:20:33.213Z,18.80
2023-10-03T03:21:33.198Z,18.77
2023-10-03T03:22:33.217Z,18.77
2023-10-03T03:23:39.672Z,18.75
2023-10-03T03:24:33.147Z,18.77
2023-10-03T03:25:33.163Z,18.78
2023-10-03T03:26:33.170Z,18.77
2023-10-03T03:27:33.150Z,18.75
2023-10-03T03:28:33.112Z,18.74
2023-10-03T03:29:33.133Z,18.71
2023-10-03T03:30:33.129Z,18.70
2023-10-03T03:31:33.301Z,18.71
2023-10-03T03:32:33.108Z,18.71
2023-10-03T03:33:33.173Z,18.66
2023-10-03T03:34:33.094Z,18.65
2023-10-03T03:35:33.074Z,18.63
2023-10-03T03:36:33.101Z,18.63
2023-10-03T03:37:33.036Z,18.65
2023-10-03T03:38:33.016Z,18.65
2023-10-03T03:39:40.844Z,18.65
2023-10-03T03:40:33.050Z,18.66
2023-10-03T03:41:33.003Z,18.66
2023-10-03T03:42:32.978Z,18.68
2023-10-03T03:43:32.967Z,18.66
2023-10-03T03:44:32.995Z,18.66
2023-10-03T03:45:32.995Z,18.63
2023-10-03T03:46:32.937Z,18.66
2023-10-03T03:47:33.021Z,18.68
2023-10-03T03:48:32.966Z,18.66
2023-10-03T03:49:32.953Z,18.68
2023-10-03T03:50:35.439Z,18.71
2023-10-03T03:51:32.857Z,18.74
2023-10-03T03:52:32.859Z,18.74
2023-10-03T03:53:32.895Z,18.75
2023-10-03T03:54:32.884Z,18.75
2023-10-03T03:55:32.838Z,18.78
2023-10-03T03:56:32.830Z,18.78
2023-10-03T03:57:32.859Z,18.78
2023-10-03T03:58:32.817Z,18.80
2023-10-03T03:59:32.850Z,18.81
2023-10-03T04:00:32.796Z,18.84
2023-10-03T04:01:32.786Z,18.86
2023-10-03T04:02:32.891Z,18.88
2023-10-03T04:03:32.878Z,18.90
2023-10-03T04:04:32.792Z,18.90
2023-10-03T04:05:32.781Z,18.90
2023-10-03T04:06:32.753Z,18.95
2023-10-03T04:07:32.732Z,18.98
2023-10-03T04:08:32.747Z,19.00
2023-10-03T04:09:32.715Z,19.00
2023-10-03T04:10:32.697Z,19.00
2023-10-03T04:11:39.185Z,19.00
2023-10-03T04:12:32.723Z,19.04
2023-10-03T04:13:32.623Z,19.07
2023-10-03T04:14:32.643Z,19.08
2023-10-03T04:15:32.617Z,19.11
2023-10-03T04:16:32.602Z,19.12
2023-10-03T04:17:32.708Z,19.14
2023-10-03T04:18:32.636Z,19.16
2023-10-03T04:19:32.578Z,19.18
2023-10-03T04:20:32.645Z,19.19
2023-10-03T04:21:32.623Z,19.24
2023-10-03T04:22:32.568Z,19.26
2023-10-03T04:23:32.565Z,19.27
2023-10-03T04:24:32.522Z,19.29
2023-10-03T04:25:32.522Z,19.31
2023-10-03T04:26:32.712Z,19.34
2023-10-03T04:27:32.486Z,19.41
2023-10-03T04:28:32.535Z,19.44
2023-10-03T04:29:32.494Z,19.45
2023-10-03T04:30:32.476Z,19.47
2023-10-03T04:31:32.489Z,19.47
2023-10-03T04:32:32.509Z,19.45
2023-10-03T04:33:32.506Z,19.44
2023-10-03T04:34:32.416Z,19.41
2023-10-03T04:35:32.486Z,19.44
2023-10-03T04:36:32.433Z,19.44
2023-10-03T04:37:32.411Z,19.44
2023-10-03T04:38:32.412Z,19.41
2023-10-03T04:39:32.365Z,19.44
2023-10-03T04:40:32.400Z,19.44
2023-10-03T04:41:32.425Z,19.47
2023-10-03T04:42:32.375Z,19.47
2023-10-03T04:43:32.330Z,19.47
2023-10-03T04:44:32.386Z,19.45
2023-10-03T04:45:32.360Z,19.45
2023-10-03T04:46:32.317Z,19.44
2023-10-03T04:47:39.876Z,19.45
2023-10-03T04:48:32.376Z,19.45
2023-10-03T04:49:32.294Z,19.44
2023-10-03T04:50:39.940Z,19.44
2023-10-03T04:51:32.250Z,19.44
2023-10-03T04:52:32.266Z,19.44
2023-10-03T04:53:32.245Z,19.47
2023-10-03T04:54:32.250Z,19.47
2023-10-03T04:55:32.228Z,19.48
2023-10-03T04:56:32.223Z,19.48
2023-10-03T04:57:32.228Z,19.47
2023-10-03T04:58:32.181Z,19.47
2023-10-03T04:59:32.255Z,19.45
2023-10-03T05:00:32.152Z,19.45
2023-10-03T05:01:32.217Z,19.47
2023-10-03T05:02:32.201Z,19.45
2023-10-03T05:03:32.323Z,19.45
2023-10-03T05:04:32.214Z,19.44
2023-10-03T05:05:32.193Z,19.41
2023-10-03T05:06:32.096Z,19.41
2023-10-03T05:07:32.105Z,19.44
2023-10-03T05:08:32.106Z,19.41
2023-10-03T05:09:32.038Z,19.40
2023-10-03T05:10:32.007Z,19.40
2023-10-03T05:11:38.531Z,19.40
2023-10-03T05:12:31.988Z,19.41
2023-10-03T05:13:32.017Z,19.40
2023-10-03T05:14:32.027Z,19.41
2023-10-03T05:15:32.003Z,19.40
2023-10-03T05:16:32.026Z,19.40
2023-10-03T05:17:32.070Z,19.40
2023-10-03T05:18:32.147Z,19.40
2023-10-03T05:19:31.915Z,19.40
2023-10-03T05:20:31.963Z,19.39
2023-10-03T05:21:31.889Z,19.40
2023-10-03T05:22:31.962Z,19.40
2023-10-03T05:23:31.942Z,19.41
2023-10-03T05:24:31.893Z,19.41
2023-10-03T05:25:31.908Z,19.44
2023-10-03T05:26:31.847Z,19.45
2023-10-03T05:27:31.844Z,19.47
2023-10-03T05:28:31.826Z,19.48
2023-10-03T05:29:31.827Z,19.48
2023-10-03T05:30:31.801Z,19.48
2023-10-03T05:31:31.889Z,19.48
2023-10-03T05:32:39.556Z,19.47
2023-10-03T05:33:31.803Z,19.45
2023-10-03T05:34:31.742Z,19.47
2023-10-03T05:35:31.781Z,19.45
2023-10-03T05:36:31.750Z,19.45
2023-10-03T05:37:31.749Z,19.44
2023-10-03T05:38:31.746Z,19.44
2023-10-03T05:39:31.711Z,19.44
2023-10-03T05:40:39.363Z,19.44
2023-10-03T05:41:31.725Z,19.45
2023-10-03T05:42:31.661Z,19.44
2023-10-03T05:43:31.660Z,19.45
2023-10-03T05:44:31.678Z,19.44
2023-10-03T05:45:31.656Z,19.41
2023-10-03T05:46:31.696Z,19.41
2023-10-03T05:47:31.676Z,19.41
2023-10-03T05:48:33.718Z,19.39
2023-10-03T05:49:31.637Z,19.40
2023-10-03T05:50:31.640Z,19.39
2023-10-03T05:51:31.592Z,19.40
2023-10-03T05:52:31.575Z,19.39
2023-10-03T05:53:31.613Z,19.39
2023-10-03T05:54:31.545Z,19.39
2023-10-03T05:55:31.557Z,19.37
2023-10-03T05:56:31.576Z,19.39
2023-10-03T05:57:31.516Z,19.37
2023-10-03T05:58:31.505Z,19.37
2023-10-03T05:59:31.564Z,19.37
2023-10-03T06:00:31.563Z,19.36
2023-10-03T06:01:37.971Z,19.36
2023-10-03T06:02:31.508Z,19.36
2023-10-03T06:03:31.745Z,19.34
2023-10-03T06:04:31.554Z,19.33
2023-10-03T06:05:31.469Z,19.33
2023-10-03T06:06:31.479Z,19.33
2023-10-03T06:07:31.411Z,19.33
2023-10-03T06:08:31.431Z,19.33
2023-10-03T06:09:31.426Z,19.31
2023-10-03T06:10:31.397Z,19.30
2023-10-03T06:11:31.498Z,19.31
2023-10-03T06:12:31.392Z,19.30
2023-10-03T06:13:31.371Z,19.30
2023-10-03T06:14:31.440Z,19.30
2023-10-03T06:15:31.329Z,19.31
2023-10-03T06:16:31.343Z,19.30
2023-10-03T06:17:31.377Z,19.30
2023-10-03T06:18:31.450Z,19.30
2023-10-03T06:19:31.291Z,19.30
2023-10-03T06:20:31.335Z,19.30
2023-10-03T06:21:31.336Z,19.31
2023-10-03T06:22:31.272Z,19.31
2023-10-03T06:23:31.300Z,19.33
2023-10-03T06:24:31.274Z,19.31
2023-10-03T06:25:31.234Z,19.31
2023-10-03T06:26:31.236Z,19.33
2023-10-03T06:27:31.246Z,19.33
2023-10-03T06:28:31.238Z,19.31
2023-10-03T06:29:31.260Z,19.30
2023-10-03T06:30:31.175Z,19.29
2023-10-03T06:31:31.203Z,19.27
2023-10-03T06:32:31.308Z,19.24
2023-10-03T06:33:31.242Z,19.26
2023-10-03T06:34:31.147Z,19.26
2023-10-03T06:35:31.161Z,19.26
2023-10-03T06:36:31.136Z,19.26
2023-10-03T06:37:31.131Z,19.26
2023-10-03T06:38:31.123Z,19.24
2023-10-03T06:39:31.128Z,19.24
2023-10-03T06:40:31.075Z,19.26
2023-10-03T06:41:31.131Z,19.24
2023-10-03T06:42:31.119Z,19.26
2023-10-03T06:43:31.049Z,19.26
2023-10-03T06:44:31.070Z,19.26
2023-10-03T06:45:31.029Z,19.24
2023-10-03T06:46:31.067Z,19.22
2023-10-03T06:47:31.052Z,19.22
2023-10-03T06:48:31.094Z,19.24
2023-10-03T06:49:30.990Z,19.24
2023-10-03T06:50:30.995Z,19.22
2023-10-03T06:51:30.988Z,19.24
2023-10-03T06:52:30.948Z,19.26
2023-10-03T06:53:30.977Z,19.26
2023-10-03T06:54:30.974Z,19.29
2023-10-03T06:55:30.945Z,19.27
2023-10-03T06:56:30.940Z,19.27
2023-10-03T06:57:30.945Z,19.26
2023-10-03T06:58:30.921Z,19.27
2023-10-03T06:59:30.936Z,19.24
2023-10-03T07:00:30.968Z,19.26
2023-10-03T07:01:30.890Z,19.26
2023-10-03T07:02:30.901Z,19.24
2023-10-03T07:03:31.084Z,19.24
2023-10-03T07:04:37.382Z,19.26
2023-10-03T07:05:30.877Z,19.26
2023-10-03T07:06:30.803Z,19.22
2023-10-03T07:07:30.827Z,19.24
2023-10-03T07:08:30.877Z,19.24
2023-10-03T07:09:30.809Z,19.24
2023-10-03T07:10:30.815Z,19.22
2023-10-03T07:11:30.800Z,19.21
2023-10-03T07:12:37.246Z,19.18
2023-10-03T07:13:30.757Z,19.18
2023-10-03T07:14:30.744Z,19.18
2023-10-03T07:15:30.748Z,19.14
2023-10-03T07:16:30.733Z,19.11
2023-10-03T07:17:37.583Z,19.12
2023-10-03T07:18:30.763Z,19.11
2023-10-03T07:19:30.720Z,19.09
2023-10-03T07:20:30.744Z,19.09
2023-10-03T07:21:30.681Z,19.09
2023-10-03T07:22:30.663Z,19.11
2023-10-03T07:23:30.694Z,19.09
2023-10-03T07:24:30.650Z,19.09
2023-10-03T07:25:30.645Z,19.08
2023-10-03T07:26:30.633Z,19.07
2023-10-03T07:27:30.620Z,19.04
2023-10-03T07:28:30.702Z,19.00
2023-10-03T07:29:30.573Z,18.99
2023-10-03T07:30:30.696Z,18.98
2023-10-03T07:31:30.580Z,18.98
2023-10-03T07:32:31.623Z,18.98
2023-10-03T07:33:30.594Z,18.98
2023-10-03T07:34:30.528Z,18.99
2023-10-03T07:35:30.616Z,18.99
2023-10-03T07:36:30.495Z,19.00
2023-10-03T07:37:30.545Z,19.00
2023-10-03T07:38:30.523Z,18.99
2023-10-03T07:39:30.510Z,18.99
2023-10-03T07:40:30.459Z,19.00
2023-10-03T07:41:30.499Z,19.02
2023-10-03T07:42:30.450Z,19.04
2023-10-03T07:43:30.443Z,19.04
2023-10-03T07:44:30.444Z,19.07
2023-10-03T07:45:30.468Z,19.07
2023-10-03T07:46:30.467Z,19.07
2023-10-03T07:47:30.589Z,19.08
2023-10-03T07:48:30.678Z,19.09
2023-10-03T07:49:30.476Z,19.07
2023-10-03T07:50:30.396Z,19.04
2023-10-03T07:51:30.407Z,19.04
2023-10-03T07:52:30.350Z,19.04
2023-10-03T07:53:30.417Z,19.04
2023-10-03T07:54:30.306Z,19.02
2023-10-03T07:55:30.332Z,19.02
2023-10-03T07:56:30.384Z,19.02
2023-10-03T07:57:30.287Z,19.02
2023-10-03T07:58:30.276Z,19.00
2023-10-03T07:59:30.288Z,19.00
2023-10-03T08:00:36.748Z,19.02
2023-10-03T08:01:35.324Z,19.02
2023-10-03T08:02:30.300Z,19.02
2023-10-03T08:03:30.304Z,19.00
2023-10-03T08:04:30.394Z,19.00
2023-10-03T08:05:30.259Z,19.00
2023-10-03T08:06:30.213Z,18.99
2023-10-03T08:07:30.188Z,18.98
2023-10-03T08:08:30.217Z,18.96
2023-10-03T08:09:32.857Z,18.98
2023-10-03T08:10:30.329Z,18.99
2023-10-03T08:11:30.408Z,18.98
2023-10-03T08:12:30.141Z,18.98
2023-10-03T08:13:30.147Z,18.96
2023-10-03T08:14:30.137Z,18.98
2023-10-03T08:15:30.187Z,18.98
2023-10-03T08:16:30.100Z,18.99
2023-10-03T08:17:30.175Z,18.99
2023-10-03T08:18:30.179Z,19.00
2023-10-03T08:19:30.076Z,19.00
2023-10-03T08:20:30.126Z,18.99
2023-10-03T08:21:30.044Z,18.99
2023-10-03T08:22:30.020Z,18.99
2023-10-03T08:23:30.050Z,18.96
2023-10-03T08:24:30.118Z,18.99
2023-10-03T08:25:29.994Z,19.00
2023-10-03T08:26:30.106Z,19.02
2023-10-03T08:27:29.981Z,19.04
2023-10-03T08:28:29.978Z,19.04
2023-10-03T08:29:30.066Z,19.07
2023-10-03T08:30:30.333Z,19.07
2023-10-03T08:31:29.986Z,19.04
2023-10-03T08:32:29.984Z,19.02
2023-10-03T08:33:30.030Z,19.02
2023-10-03T08:34:29.948Z,19.02
2023-10-03T08:35:29.918Z,19.04
2023-10-03T08:36:29.869Z,19.04
2023-10-03T08:37:29.875Z,19.04
2023-10-03T08:38:29.915Z,19.07
2023-10-03T08:39:29.875Z,19.08
2023-10-03T08:40:29.844Z,19.09
2023-10-03T08:41:29.863Z,19.07
2023-10-03T08:42:29.829Z,19.09
2023-10-03T08:43:29.834Z,19.07
2023-10-03T08:44:29.815Z,19.08
2023-10-03T08:45:29.851Z,19.02
2023-10-03T08:46:29.862Z,19.00
2023-10-03T08:47:30.189Z,19.02
2023-10-03T08:48:29.845Z,18.99
2023-10-03T08:49:29.752Z,18.96
2023-10-03T08:50:29.785Z,18.96
2023-10-03T08:51:29.727Z,18.95
2023-10-03T08:52:29.766Z,18.96
2023-10-03T08:53:29.747Z,18.93
2023-10-03T08:54:29.689Z,18.93
2023-10-03T08:55:29.678Z,18.92
2023-10-03T08:56:29.707Z,18.93
2023-10-03T08:57:29.695Z,18.96
2023-10-03T08:58:29.661Z,18.96
2023-10-03T08:59:29.700Z,18.98
2023-10-03T09:00:29.642Z,19.00
2023-10-03T09:01:29.704Z,18.99
2023-10-03T09:02:29.692Z,19.02
2023-10-03T09:03:36.171Z,-39.76
2023-10-03T09:04:29.649Z,19.00
2023-10-03T09:05:29.630Z,19.00
2023-10-03T09:06:37.555Z,19.00
2023-10-03T09:07:29.574Z,19.00
2023-10-03T09:08:29.666Z,18.96
2023-10-03T09:09:29.595Z,18.92
2023-10-03T09:10:29.545Z,18.89
2023-10-03T09:11:38.110Z,18.88
2023-10-03T09:12:29.516Z,18.90
2023-10-03T09:13:29.722Z,18.90
2023-10-03T09:14:29.561Z,18.88
2023-10-03T09:15:29.525Z,18.86
2023-10-03T09:16:29.553Z,18.88
2023-10-03T09:17:29.518Z,18.88
2023-10-03T09:18:29.601Z,18.89
2023-10-03T09:19:29.452Z,18.92
2023-10-03T09:20:29.775Z,18.93
2023-10-03T09:21:29.480Z,18.92
2023-10-03T09:22:29.426Z,18.95
2023-10-03T09:23:29.445Z,18.96
2023-10-03T09:24:29.412Z,18.96
2023-10-03T09:25:29.643Z,18.96
2023-10-03T09:26:29.393Z,18.96
2023-10-03T09:27:29.382Z,18.95
2023-10-03T09:28:29.404Z,18.93
2023-10-03T09:29:29.405Z,18.90
2023-10-03T09:30:29.531Z,18.89
2023-10-03T09:31:29.367Z,18.88
2023-10-03T09:32:29.552Z,18.88
2023-10-03T09:33:29.408Z,18.90
2023-10-03T09:34:29.368Z,18.92
2023-10-03T09:35:35.836Z,18.93
2023-10-03T09:36:29.314Z,18.95
2023-10-03T09:37:29.322Z,18.92
2023-10-03T09:38:29.274Z,18.89
2023-10-03T09:39:29.268Z,18.89
2023-10-03T09:40:29.237Z,18.86
2023-10-03T09:41:29.321Z,18.81
2023-10-03T09:42:29.213Z,18.80
2023-10-03T09:43:29.372Z,18.81
2023-10-03T09:44:29.237Z,18.81
2023-10-03T09:45:29.216Z,18.80
2023-10-03T09:46:29.212Z,18.80
2023-10-03T09:47:38.435Z,18.78
2023-10-03T09:48:38.230Z,18.71
2023-10-03T09:49:29.125Z,18.63
2023-10-03T09:50:29.265Z,18.56
2023-10-03T09:51:29.126Z,18.50
2023-10-03T09:52:29.099Z,18.45
2023-10-03T09:53:29.252Z,18.43
2023-10-03T09:54:29.080Z,18.43
2023-10-03T09:55:29.083Z,18.43
2023-10-03T09:56:29.098Z,18.35
2023-10-03T09:57:29.041Z,18.34
2023-10-03T09:58:29.089Z,18.34
2023-10-03T09:59:29.048Z,18.34
2023-10-03T10:00:29.046Z,18.34
2023-10-03T10:01:29.087Z,18.35
2023-10-03T10:02:29.074Z,18.38
2023-10-03T10:03:29.195Z,18.43
2023-10-03T10:04:29.161Z,18.44
2023-10-03T10:05:29.095Z,18.47
2023-10-03T10:06:28.956Z,18.52
2023-10-03T10:07:29.004Z,18.53
2023-10-03T10:08:30.797Z,18.56
2023-10-03T10:09:29.172Z,18.59
2023-10-03T10:10:28.989Z,18.60
2023-10-03T10:11:28.970Z,18.62
2023-10-03T10:12:28.979Z,18.63
2023-10-03T10:13:28.881Z,18.65
2023-10-03T10:14:28.941Z,18.63
2023-10-03T10:15:28.906Z,18.60
2023-10-03T10:16:28.993Z,18.60
2023-10-03T10:17:28.889Z,18.62
2023-10-03T10:18:28.990Z,18.59
2023-10-03T10:19:28.821Z,18.59
2023-10-03T10:20:28.827Z,18.56
2023-10-03T10:21:28.868Z,18.56
2023-10-03T10:22:28.822Z,18.52
2023-10-03T10:23:28.797Z,18.52
2023-10-03T10:24:28.793Z,18.55
2023-10-03T10:25:28.784Z,18.53
2023-10-03T10:26:28.782Z,18.52
2023-10-03T10:27:28.760Z,18.49
2023-10-03T10:28:28.819Z,18.52
2023-10-03T10:29:28.736Z,18.50
2023-10-03T10:30:28.745Z,18.49
2023-10-03T10:31:28.750Z,18.50
2023-10-03T10:32:28.720Z,18.52
2023-10-03T10:33:28.795Z,18.55
2023-10-03T10:34:28.683Z,18.55
2023-10-03T10:35:28.750Z,18.55
2023-10-03T10:36:28.693Z,18.58
2023-10-03T10:37:28.641Z,18.55
2023-10-03T10:38:28.658Z,18.53
2023-10-03T10:39:28.675Z,18.52
2023-10-03T10:40:28.658Z,18.50
2023-10-03T10:41:28.605Z,18.52
2023-10-03T10:42:28.641Z,18.58
2023-10-03T10:43:28.623Z,18.43
2023-10-03T10:44:28.602Z,18.38
2023-10-03T10:45:28.624Z,18.19
2023-10-03T10:46:28.554Z,18.04
2023-10-03T10:47:28.564Z,17.95
2023-10-03T10:48:28.632Z,17.92
2023-10-03T10:49:28.551Z,17.90
2023-10-03T10:50:28.532Z,17.92
2023-10-03T10:51:28.545Z,17.89
2023-10-03T10:52:28.532Z,17.86
2023-10-03T10:53:28.465Z,17.80
2023-10-03T10:54:28.501Z,17.76
2023-10-03T10:55:28.491Z,17.71
2023-10-03T10:56:28.448Z,17.63
2023-10-03T10:57:28.431Z,17.49
2023-10-03T10:58:28.465Z,17.39
2023-10-03T10:59:28.434Z,17.27
2023-10-03T11:00:28.427Z,17.24
2023-10-03T11:01:28.424Z,17.23
2023-10-03T11:02:28.487Z,17.26
2023-10-03T11:03:28.528Z,17.23
2023-10-03T11:04:28.405Z,17.19
2023-10-03T11:05:28.382Z,17.15
2023-10-03T11:06:28.339Z,17.19
2023-10-03T11:07:28.345Z,17.19
2023-10-03T11:08:28.389Z,17.12
2023-10-03T11:09:28.331Z,17.12
2023-10-03T11:10:34.813Z,17.14
2023-10-03T11:11:28.385Z,17.16
2023-10-03T11:12:28.318Z,17.14
2023-10-03T11:13:28.311Z,17.09
2023-10-03T11:14:28.258Z,17.05
2023-10-03T11:15:28.242Z,17.02
2023-10-03T11:16:28.259Z,17.02
2023-10-03T11:17:28.305Z,16.97
2023-10-03T11:18:28.337Z,16.99
2023-10-03T11:19:28.276Z,17.02
2023-10-03T11:20:28.193Z,17.06
2023-10-03T11:21:28.198Z,17.09
2023-10-03T11:22:28.204Z,17.12
2023-10-03T11:23:28.421Z,17.08
2023-10-03T11:24:28.179Z,16.99
2023-10-03T11:25:28.139Z,16.97
2023-10-03T11:26:29.001Z,17.01
2023-10-03T11:27:28.228Z,17.01
2023-10-03T11:28:28.161Z,17.04
2023-10-03T11:29:28.120Z,17.08
2023-10-03T11:30:28.109Z,17.12
2023-10-03T11:31:28.142Z,17.06
2023-10-03T11:32:28.138Z,16.99
2023-10-03T11:33:28.162Z,16.90
2023-10-03T11:34:28.059Z,16.87
2023-10-03T11:35:28.052Z,16.89
2023-10-03T11:36:28.045Z,16.90
2023-10-03T11:37:28.054Z,16.89
2023-10-03T11:38:28.061Z,16.89
2023-10-03T11:39:27.997Z,16.81
2023-10-03T11:40:29.863Z,16.78
2023-10-03T11:41:27.997Z,16.79
2023-10-03T11:42:28.034Z,16.78
2023-10-03T11:43:27.951Z,16.81
2023-10-03T11:44:27.940Z,16.78
2023-10-03T11:45:28.035Z,16.74
2023-10-03T11:46:27.972Z,16.75
2023-10-03T11:47:27.999Z,16.76
2023-10-03T11:48:28.075Z,16.81
2023-10-03T11:49:27.904Z,16.78
2023-10-03T11:50:27.913Z,16.79
2023-10-03T11:51:27.912Z,16.81
2023-10-03T11:52:27.887Z,16.81
2023-10-03T11:53:27.849Z,16.86
2023-10-03T11:54:27.905Z,16.90
2023-10-03T11:55:27.843Z,16.91
2023-10-03T11:56:27.849Z,16.93
2023-10-03T11:57:27.805Z,16.90
2023-10-03T11:58:27.804Z,16.84
2023-10-03T11:59:27.821Z,16.76
2023-10-03T12:00:27.794Z,16.74
2023-10-03T12:01:27.806Z,16.76
2023-10-03T12:02:27.785Z,16.79
2023-10-03T12:03:27.808Z,16.83
2023-10-03T12:04:27.840Z,16.87
2023-10-03T12:05:27.718Z,16.91
2023-10-03T12:06:27.712Z,16.93
2023-10-03T12:07:29.960Z,16.94
2023-10-03T12:08:27.735Z,16.93
2023-10-03T12:09:27.701Z,16.89
2023-10-03T12:10:27.811Z,16.91
2023-10-03T12:11:27.714Z,16.94
2023-10-03T12:12:27.677Z,16.97
2023-10-03T12:13:27.656Z,16.94
2023-10-03T12:14:27.658Z,16.91
2023-10-03T12:15:27.716Z,16.96
2023-10-03T12:16:27.607Z,16.97
2023-10-03T12:17:27.690Z,17.01
2023-10-03T12:18:27.675Z,17.05
2023-10-03T12:19:27.685Z,17.09
2023-10-03T12:20:27.591Z,17.05
2023-10-03T12:21:27.560Z,17.09
2023-10-03T12:22:27.584Z,17.12
2023-10-03T12:23:27.564Z,17.15
2023-10-03T12:24:27.522Z,17.15
2023-10-03T12:25:27.582Z,17.19
2023-10-03T12:26:28.159Z,17.20
2023-10-03T12:27:27.513Z,17.16
2023-10-03T12:28:27.509Z,17.12
2023-10-03T12:29:27.465Z,17.06
2023-10-03T12:30:27.460Z,17.01
2023-10-03T12:31:27.654Z,17.02
2023-10-03T12:32:27.569Z,16.97
2023-10-03T12:33:27.467Z,17.02
2023-10-03T12:34:27.432Z,17.08
2023-10-03T12:35:27.444Z,17.15
2023-10-03T12:36:28.901Z,17.24
2023-10-03T12:37:27.450Z,17.30
2023-10-03T12:38:27.395Z,-39.76
2023-10-03T12:39:27.405Z,-39.76
2023-10-03T12:40:27.394Z,-39.76
2023-10-03T12:41:27.400Z,-39.76
2023-10-03T12:42:27.358Z,-39.76
2023-10-03T12:43:33.865Z,-39.76
2023-10-03T12:44:27.349Z,-39.76
2023-10-03T12:45:27.359Z,-39.76
2023-10-03T12:46:27.328Z,-39.76
2023-10-03T12:47:27.349Z,-39.76
2023-10-03T12:48:27.312Z,-39.76
2023-10-03T12:49:27.289Z,-39.76
2023-10-03T12:50:27.274Z,-39.76
2023-10-03T12:51:27.278Z,-39.76
2023-10-03T12:52:27.255Z,-39.76